createdAt,value
2022-10-06T00:02:23.329Z,0.55
2022-10-06T00:04:49.920Z,0.90
2022-10-06T00:07:17.373Z,0.95
2022-10-06T00:09:43.975Z,0.80
2022-10-06T00:12:10.627Z,0.50
2022-10-06T00:14:37.794Z,1.45
2022-10-06T00:17:05.092Z,1.10
2022-10-06T00:19:31.582Z,0.82
2022-10-06T00:21:58.434Z,2.10
2022-10-06T00:24:24.927Z,0.60
2022-10-06T00:26:51.416Z,0.40
2022-10-06T00:29:18.739Z,1.55
2022-10-06T00:31:45.202Z,0.85
2022-10-06T00:34:11.624Z,1.08
2022-10-06T00:36:38.023Z,1.17
2022-10-06T00:39:04.463Z,0.90
2022-10-06T00:41:31.132Z,0.85
2022-10-06T00:43:58.971Z,1.20
2022-10-06T00:46:40.756Z,0.95
2022-10-06T00:49:25.371Z,1.45
2022-10-06T00:51:57.742Z,1.33
2022-10-06T00:54:25.323Z,0.77
2022-10-06T00:56:52.422Z,0.68
2022-10-06T00:59:19.098Z,0.90
2022-10-06T01:02:22.964Z,1.52
2022-10-06T01:04:55.594Z,0.95
2022-10-06T01:07:24.240Z,0.57
2022-10-06T01:09:50.823Z,1.42
2022-10-06T01:12:17.315Z,1.23
2022-10-06T01:14:43.818Z,1.75
2022-10-06T01:17:24.872Z,1.88
2022-10-06T01:20:01.333Z,1.08
2022-10-06T01:22:41.159Z,1.63
2022-10-06T01:25:10.038Z,1.67
2022-10-06T01:27:39.070Z,2.10
2022-10-06T01:30:09.043Z,0.50
2022-10-06T01:32:38.862Z,2.25
2022-10-06T01:35:06.737Z,1.48
2022-10-06T01:37:33.174Z,1.80
2022-10-06T01:39:59.587Z,0.20
2022-10-06T01:42:26.417Z,2.35
2022-10-06T01:44:52.849Z,1.70
2022-10-06T01:47:19.226Z,0.50
2022-10-06T01:49:45.623Z,1.55
2022-10-06T01:52:12.083Z,0.80
2022-10-06T01:54:38.541Z,2.22
2022-10-06T01:57:06.322Z,1.23
2022-10-06T01:59:32.741Z,0.73
2022-10-06T02:01:59.488Z,1.70
2022-10-06T02:04:26.038Z,1.60
2022-10-06T02:06:55.349Z,1.80
2022-10-06T02:09:22.727Z,1.85
2022-10-06T02:11:49.294Z,1.17
2022-10-06T02:14:18.020Z,1.50
2022-10-06T02:16:45.060Z,1.65
2022-10-06T02:19:11.580Z,1.80
2022-10-06T02:21:38.830Z,1.60
2022-10-06T02:24:05.362Z,1.67
2022-10-06T02:26:32.163Z,1.20
2022-10-06T02:28:58.723Z,2.15
2022-10-06T02:31:25.559Z,2.15
2022-10-06T02:33:52.023Z,1.70
2022-10-06T02:36:18.441Z,1.75
2022-10-06T02:38:44.856Z,2.35
2022-10-06T02:41:11.269Z,2.60
2022-10-06T02:43:37.862Z,2.17
2022-10-06T02:46:12.017Z,1.60
2022-10-06T02:48:40.634Z,2.95
2022-10-06T02:51:12.304Z,1.27
2022-10-06T02:53:39.819Z,1.75
2022-10-06T02:56:08.669Z,1.95
2022-10-06T02:58:35.071Z,1.05
2022-10-06T03:01:05.377Z,2.55
2022-10-06T03:03:34.832Z,1.48
2022-10-06T03:06:05.676Z,3.05
2022-10-06T03:08:32.813Z,2.05
2022-10-06T03:11:01.103Z,1.85
2022-10-06T03:13:27.867Z,1.73
2022-10-06T03:15:54.376Z,1.83
2022-10-06T03:18:21.579Z,3.03
2022-10-06T03:20:48.595Z,0.82
2022-10-06T03:23:15.150Z,1.02
2022-10-06T03:25:41.518Z,1.60
2022-10-06T03:28:07.923Z,2.15
2022-10-06T03:30:34.359Z,2.17
2022-10-06T03:33:01.770Z,2.67
2022-10-06T03:35:28.187Z,1.58
2022-10-06T03:37:54.604Z,1.48
2022-10-06T03:40:20.978Z,2.08
2022-10-06T03:42:47.364Z,2.22
2022-10-06T03:45:13.832Z,2.63
2022-10-06T03:47:40.215Z,1.75
2022-10-06T03:50:07.177Z,2.75
2022-10-06T03:52:34.081Z,2.13
2022-10-06T03:55:00.455Z,2.58
2022-10-06T03:57:26.838Z,1.80
2022-10-06T03:59:53.280Z,1.70
2022-10-06T04:02:19.729Z,1.75
2022-10-06T04:04:46.198Z,0.88
2022-10-06T04:07:12.600Z,1.45
2022-10-06T04:09:39.091Z,2.30
2022-10-06T04:12:05.511Z,2.53
2022-10-06T04:14:31.917Z,2.45
2022-10-06T04:16:58.651Z,1.50
2022-10-06T04:19:25.309Z,1.95
2022-10-06T04:21:51.714Z,1.60
2022-10-06T04:24:18.539Z,1.80
2022-10-06T04:26:46.359Z,1.95
2022-10-06T04:29:13.564Z,2.63
2022-10-06T04:31:42.351Z,2.38
2022-10-06T04:34:10.882Z,2.75
2022-10-06T04:36:40.889Z,2.25
2022-10-06T04:39:10.141Z,1.60
2022-10-06T04:41:39.027Z,1.23
2022-10-06T04:44:06.664Z,1.95
2022-10-06T04:46:43.708Z,2.15
2022-10-06T04:49:17.918Z,2.05
2022-10-06T04:51:46.324Z,2.50
2022-10-06T04:54:12.841Z,1.40
2022-10-06T04:56:39.245Z,3.15
2022-10-06T04:59:05.648Z,1.73
2022-10-06T05:01:34.236Z,1.90
2022-10-06T05:04:02.229Z,2.05
2022-10-06T05:06:34.701Z,1.48
2022-10-06T05:09:05.078Z,2.10
2022-10-06T05:11:31.859Z,1.05
2022-10-06T05:13:59.369Z,2.33
2022-10-06T05:16:28.495Z,2.35
2022-10-06T05:18:54.964Z,2.08
2022-10-06T05:21:24.307Z,3.42
2022-10-06T05:23:51.051Z,2.85
2022-10-06T05:26:20.649Z,1.15
2022-10-06T05:28:47.343Z,0.50
2022-10-06T05:31:20.755Z,1.85
2022-10-06T05:33:47.952Z,2.10
2022-10-06T05:36:19.554Z,2.85
2022-10-06T05:38:47.063Z,2.28
2022-10-06T05:41:16.281Z,1.25
2022-10-06T05:43:43.296Z,3.15
2022-10-06T05:46:17.586Z,2.22
2022-10-06T05:48:47.959Z,2.47
2022-10-06T05:51:14.966Z,1.80
2022-10-06T05:53:41.630Z,1.73
2022-10-06T05:56:26.629Z,2.20
2022-10-06T05:58:54.858Z,1.85
2022-10-06T06:01:32.144Z,2.42
2022-10-06T06:04:01.214Z,1.98
2022-10-06T06:06:34.445Z,1.88
2022-10-06T06:09:04.240Z,1.77
2022-10-06T06:11:31.626Z,2.45
2022-10-06T06:13:58.683Z,1.67
2022-10-06T06:16:26.392Z,2.25
2022-10-06T06:18:52.963Z,2.05
2022-10-06T06:21:19.566Z,2.95
2022-10-06T06:23:48.123Z,2.22
2022-10-06T06:26:17.359Z,1.77
2022-10-06T21:56:09.966Z,14.05
2022-10-06T21:58:36.383Z,11.63
2022-10-06T22:01:07.717Z,11.32
2022-10-06T22:03:38.723Z,9.25
2022-10-06T22:06:07.375Z,8.77
2022-10-06T22:08:35.744Z,7.65
2022-10-06T22:11:07.407Z,8.13
2022-10-06T22:13:33.967Z,7.28
2022-10-06T22:16:04.161Z,7.22
2022-10-06T22:18:34.916Z,7.30
2022-10-06T22:21:01.308Z,6.05
2022-10-06T22:23:28.080Z,6.47
2022-10-06T22:25:57.889Z,7.70
2022-10-06T22:28:25.283Z,9.48
2022-10-06T22:31:11.306Z,10.55
2022-10-06T22:33:39.660Z,12.60
2022-10-06T22:36:07.169Z,10.57
2022-10-06T22:38:34.438Z,14.88
2022-10-06T22:41:02.329Z,12.20
2022-10-06T22:43:29.659Z,11.35
2022-10-06T22:45:56.850Z,9.90
2022-10-06T22:48:23.702Z,9.73
2022-10-06T22:50:50.760Z,8.50
2022-10-06T22:53:21.216Z,8.75
2022-10-06T22:55:47.858Z,8.90
2022-10-06T22:58:15.442Z,8.45
2022-10-06T23:00:42.849Z,7.70
2022-10-06T23:03:09.588Z,9.23
2022-10-06T23:05:36.804Z,8.52
2022-10-06T23:08:04.410Z,8.05
2022-10-06T23:10:33.571Z,7.20
2022-10-06T23:13:00.363Z,6.25
2022-10-06T23:15:27.502Z,6.35
2022-10-06T23:17:54.221Z,5.90
2022-10-06T23:20:21.303Z,7.15
2022-10-06T23:22:47.885Z,6.78
2022-10-06T23:25:14.382Z,6.47
2022-10-06T23:27:40.952Z,6.10
2022-10-06T23:30:08.213Z,6.80
2022-10-06T23:32:34.663Z,6.93
2022-10-06T23:35:01.083Z,7.03
2022-10-06T23:37:28.311Z,7.95
2022-10-06T23:39:54.701Z,7.40
2022-10-06T23:42:21.122Z,7.57
2022-10-06T23:44:47.533Z,7.38
2022-10-06T23:47:13.940Z,6.60
2022-10-06T23:49:43.420Z,7.28
2022-10-06T23:52:09.954Z,7.15
2022-10-06T23:54:36.417Z,6.65
2022-10-06T23:57:02.927Z,6.07
2022-10-06T23:59:29.561Z,5.95
